sensor_id;sensor_type;location;lat;lon;timestamp;temperature;humidity
53675;DHT22;39574;50.534;8.500;2023-04-24T00:09:07;12.0;99.9
53675;DHT22;39574;50.534;8.500;2023-04-24T00:14:16;12.1;99.9
53675;DHT22;39574;50.534;8.500;2023-04-24T00:24:03;12.1;99.9
53675;DHT22;39574;50.534;8.500;2023-04-24T00:34:21;12.0;99.9
53675;DHT22;39574;50.534;8.500;2023-04-24T00:44:00;12.1;99.9
53675;DHT22;39574;50.534;8.500;2023-04-24T00:53:58;12.1;99.9
53675;DHT22;39574;50.534;8.500;2023-04-24T01:04:15;12.2;99.9
53675;DHT22;39574;50.534;8.500;2023-04-24T01:13:29;12.3;99.9
53675;DHT22;39574;50.534;8.500;2023-04-24T01:18:51;12.3;99.9
53675;DHT22;39574;50.534;8.500;2023-04-24T01:28:28;12.4;99.9
53675;DHT22;39574;50.534;8.500;2023-04-24T01:33:58;12.4;99.9
53675;DHT22;39574;50.534;8.500;2023-04-24T01:43:23;12.4;99.9
53675;DHT22;39574;50.534;8.500;2023-04-24T01:49:07;12.3;99.9
53675;DHT22;39574;50.534;8.500;2023-04-24T01:58:47;12.0;99.9
53675;DHT22;39574;50.534;8.500;2023-04-24T02:08:45;11.7;99.9
53675;DHT22;39574;50.534;8.500;2023-04-24T02:18:43;11.4;99.9
53675;DHT22;39574;50.534;8.500;2023-04-24T02:29:00;11.2;99.9
53675;DHT22;39574;50.534;8.500;2023-04-24T02:38:58;11.3;99.9
53675;DHT22;39574;50.534;8.500;2023-04-24T02:48:37;11.3;99.9
53675;DHT22;39574;50.534;8.500;2023-04-24T02:58:38;11.3;99.9
53675;DHT22;39574;50.534;8.500;2023-04-24T03:08:43;11.3;99.9
53675;DHT22;39574;50.534;8.500;2023-04-24T03:13:51;11.2;99.9
53675;DHT22;39574;50.534;8.500;2023-04-24T03:23:30;11.1;99.9
53675;DHT22;39574;50.534;8.500;2023-04-24T03:28:48;11.0;99.9
53675;DHT22;39574;50.534;8.500;2023-04-24T03:38:26;11.0;99.9
53675;DHT22;39574;50.534;8.500;2023-04-24T03:43:26;11.0;99.9
53675;DHT22;39574;50.534;8.500;2023-04-24T03:48:44;11.0;99.9
53675;DHT22;39574;50.534;8.500;2023-04-24T03:58:42;10.9;99.9
53675;DHT22;39574;50.534;8.500;2023-04-24T04:08:24;10.7;99.9
53675;DHT22;39574;50.534;8.500;2023-04-24T04:18:21;10.6;99.9
53675;DHT22;39574;50.534;8.500;2023-04-24T04:28:18;10.4;99.9
53675;DHT22;39574;50.534;8.500;2023-04-24T04:38:15;10.2;99.9
53675;DHT22;39574;50.534;8.500;2023-04-24T04:43:24;10.1;99.9
53675;DHT22;39574;50.534;8.500;2023-04-24T04:53:12;10.0;99.9
53675;DHT22;39574;50.534;8.500;2023-04-24T04:58:30;9.9;99.9
53675;DHT22;39574;50.534;8.500;2023-04-24T05:08:09;9.8;99.9
53675;DHT22;39574;50.534;8.500;2023-04-24T05:17:41;9.8;99.9
53675;DHT22;39574;50.534;8.500;2023-04-24T05:28:06;9.7;99.9
53675;DHT22;39574;50.534;8.500;2023-04-24T05:38:03;9.8;99.9
53675;DHT22;39574;50.534;8.500;2023-04-24T05:43:20;9.9;99.9
53675;DHT22;39574;50.534;8.500;2023-04-24T05:52:58;9.8;99.9
53675;DHT22;39574;50.534;8.500;2023-04-24T05:57:59;9.8;99.9
53675;DHT22;39574;50.534;8.500;2023-04-24T06:07:57;9.8;99.9
53675;DHT22;39574;50.534;8.500;2023-04-24T06:12:58;9.8;99.9
53675;DHT22;39574;50.534;8.500;2023-04-24T06:22:56;9.9;99.9
53675;DHT22;39574;50.534;8.500;2023-04-24T06:32:52;10.0;99.9
53675;DHT22;39574;50.534;8.500;2023-04-24T06:43:10;10.2;99.9
53675;DHT22;39574;50.534;8.500;2023-04-24T06:52:50;10.2;99.9
53675;DHT22;39574;50.534;8.500;2023-04-24T06:58:05;10.3;99.9
53675;DHT22;39574;50.534;8.500;2023-04-24T07:07:44;10.3;99.9
53675;DHT22;39574;50.534;8.500;2023-04-24T07:17:42;10.4;99.9
53675;DHT22;39574;50.534;8.500;2023-04-24T07:22:44;10.6;99.9
53675;DHT22;39574;50.534;8.500;2023-04-24T07:27:58;10.7;99.9
53675;DHT22;39574;50.534;8.500;2023-04-24T07:37:38;11.0;99.9
53675;DHT22;39574;50.534;8.500;2023-04-24T07:47:37;11.2;99.9
53675;DHT22;39574;50.534;8.500;2023-04-24T07:52:45;11.4;99.9
53675;DHT22;39574;50.534;8.500;2023-04-24T08:02:33;11.4;99.9
53675;DHT22;39574;50.534;8.500;2023-04-24T08:12:05;11.6;99.9
53675;DHT22;39574;50.534;8.500;2023-04-24T08:17:40;11.5;99.9
53675;DHT22;39574;50.534;8.500;2023-04-24T08:27:28;11.3;99.9
53675;DHT22;39574;50.534;8.500;2023-04-24T08:32:37;11.1;99.9
53675;DHT22;39574;50.534;8.500;2023-04-24T08:37:44;10.9;99.9
53675;DHT22;39574;50.534;8.500;2023-04-24T08:47:24;10.7;99.9
53675;DHT22;39574;50.534;8.500;2023-04-24T08:52:42;10.7;99.9
53675;DHT22;39574;50.534;8.500;2023-04-24T09:01:56;10.7;99.9
53675;DHT22;39574;50.534;8.500;2023-04-24T09:07:20;10.7;99.9
53675;DHT22;39574;50.534;8.500;2023-04-24T09:12:29;10.9;99.9
53675;DHT22;39574;50.534;8.500;2023-04-24T09:22:36;11.0;99.9
53675;DHT22;39574;50.534;8.500;2023-04-24T09:32:33;11.3;99.9
53675;DHT22;39574;50.534;8.500;2023-04-24T09:42:23;11.5;99.9
53675;DHT22;39574;50.534;8.500;2023-04-24T09:47:23;11.5;99.9
53675;DHT22;39574;50.534;8.500;2023-04-24T09:57:29;11.1;99.9
53675;DHT22;39574;50.534;8.500;2023-04-24T10:06:43;10.7;99.9
53675;DHT22;39574;50.534;8.500;2023-04-24T10:12:07;10.4;99.9
53675;DHT22;39574;50.534;8.500;2023-04-24T10:17:25;10.3;99.9
53675;DHT22;39574;50.534;8.500;2023-04-24T10:27:05;10.4;99.9
53675;DHT22;39574;50.534;8.500;2023-04-24T10:37:02;10.6;99.9
53675;DHT22;39574;50.534;8.500;2023-04-24T10:46:35;11.0;99.9
53675;DHT22;39574;50.534;8.500;2023-04-24T10:52:00;11.3;99.9
53675;DHT22;39574;50.534;8.500;2023-04-24T11:01:58;11.5;99.9
53675;DHT22;39574;50.534;8.500;2023-04-24T11:06:59;11.2;99.9
53675;DHT22;39574;50.534;8.500;2023-04-24T11:17:04;11.0;99.9
53675;DHT22;39574;50.534;8.500;2023-04-24T11:26:53;11.0;99.9
53675;DHT22;39574;50.534;8.500;2023-04-24T11:36:25;10.8;99.9
53675;DHT22;39574;50.534;8.500;2023-04-24T11:42:06;10.6;99.9
53675;DHT22;39574;50.534;8.500;2023-04-24T11:51:22;10.5;99.9
53675;DHT22;39574;50.534;8.500;2023-04-24T12:01:43;10.5;99.9
53675;DHT22;39574;50.534;8.500;2023-04-24T12:07:02;10.3;99.9
53675;DHT22;39574;50.534;8.500;2023-04-24T12:11:52;10.3;99.9
53675;DHT22;39574;50.534;8.500;2023-04-24T12:16:52;10.4;99.9
53675;DHT22;39574;50.534;8.500;2023-04-24T12:26:42;10.4;99.9
53675;DHT22;39574;50.534;8.500;2023-04-24T12:31:49;10.4;99.9
53675;DHT22;39574;50.534;8.500;2023-04-24T12:36:56;10.4;99.9
53675;DHT22;39574;50.534;8.500;2023-04-24T12:46:39;10.6;99.9
53675;DHT22;39574;50.534;8.500;2023-04-24T12:51:45;10.8;99.9
53675;DHT22;39574;50.534;8.500;2023-04-24T13:01:33;10.9;99.9
53675;DHT22;39574;50.534;8.500;2023-04-24T13:11:01;11.0;99.9
53675;DHT22;39574;50.534;8.500;2023-04-24T13:16:30;11.1;99.9
53675;DHT22;39574;50.534;8.500;2023-04-24T13:26:46;10.7;99.9
53675;DHT22;39574;50.534;8.500;2023-04-24T13:36:36;10.2;99.9
53675;DHT22;39574;50.534;8.500;2023-04-24T13:46:24;9.9;99.9
53675;DHT22;39574;50.534;8.500;2023-04-24T13:56:40;10.6;99.9
53675;DHT22;39574;50.534;8.500;2023-04-24T14:06:20;11.3;99.9
53675;DHT22;39574;50.534;8.500;2023-04-24T14:16:21;11.8;99.9
53675;DHT22;39574;50.534;8.500;2023-04-24T14:26:16;12.5;99.9
53675;DHT22;39574;50.534;8.500;2023-04-24T14:36:12;12.8;99.9
53675;DHT22;39574;50.534;8.500;2023-04-24T14:41:13;13.1;99.9
53675;DHT22;39574;50.534;8.500;2023-04-24T14:51:11;12.8;99.9
53675;DHT22;39574;50.534;8.500;2023-04-24T14:56:20;12.3;99.9
53675;DHT22;39574;50.534;8.500;2023-04-24T15:06:08;11.9;99.9
53675;DHT22;39574;50.534;8.500;2023-04-24T15:16:03;10.9;99.9
53675;DHT22;39574;50.534;8.500;2023-04-24T15:26:04;10.9;99.9
53675;DHT22;39574;50.534;8.500;2023-04-24T15:36:02;11.6;99.9
53675;DHT22;39574;50.534;8.500;2023-04-24T15:46:00;11.9;99.9
53675;DHT22;39574;50.534;8.500;2023-04-24T15:55:58;11.8;99.9
53675;DHT22;39574;50.534;8.500;2023-04-24T16:05:56;11.9;99.9
53675;DHT22;39574;50.534;8.500;2023-04-24T16:16:13;11.8;99.9
53675;DHT22;39574;50.534;8.500;2023-04-24T16:25:52;12.0;99.9
53675;DHT22;39574;50.534;8.500;2023-04-24T16:35:25;12.3;99.9
53675;DHT22;39574;50.534;8.500;2023-04-24T16:40:49;12.5;99.9
53675;DHT22;39574;50.534;8.500;2023-04-24T16:50:20;12.3;99.9
53675;DHT22;39574;50.534;8.500;2023-04-24T16:55:47;12.1;99.9
53675;DHT22;39574;50.534;8.500;2023-04-24T17:05:45;12.2;99.9
53675;DHT22;39574;50.534;8.500;2023-04-24T17:10:44;12.2;99.9
53675;DHT22;39574;50.534;8.500;2023-04-24T17:20:44;12.3;99.9
53675;DHT22;39574;50.534;8.500;2023-04-24T17:30:50;12.0;99.9
53675;DHT22;39574;50.534;8.500;2023-04-24T17:40:57;11.8;99.9
53675;DHT22;39574;50.534;8.500;2023-04-24T17:50:54;11.5;99.9
53675;DHT22;39574;50.534;8.500;2023-04-24T18:00:34;11.4;99.9
53675;DHT22;39574;50.534;8.500;2023-04-24T18:05:44;11.4;99.9
53675;DHT22;39574;50.534;8.500;2023-04-24T18:10:50;11.4;99.9
53675;DHT22;39574;50.534;8.500;2023-04-24T18:20:30;11.3;99.9
53675;DHT22;39574;50.534;8.500;2023-04-24T18:29:57;11.3;99.9
53675;DHT22;39574;50.534;8.500;2023-04-24T18:35:45;11.3;99.9
53675;DHT22;39574;50.534;8.500;2023-04-24T18:45:00;11.2;99.9
53675;DHT22;39574;50.534;8.500;2023-04-24T18:55:33;11.2;99.9
53675;DHT22;39574;50.534;8.500;2023-04-24T19:05:31;11.2;99.9
53675;DHT22;39574;50.534;8.500;2023-04-24T19:10:38;11.2;99.9
53675;DHT22;39574;50.534;8.500;2023-04-24T19:20:36;11.2;99.9
53675;DHT22;39574;50.534;8.500;2023-04-24T19:29:51;11.3;99.9
53675;DHT22;39574;50.534;8.500;2023-04-24T19:35:15;11.3;99.9
53675;DHT22;39574;50.534;8.500;2023-04-24T19:40:33;11.3;99.9
53675;DHT22;39574;50.534;8.500;2023-04-24T19:50:12;11.3;99.9
53675;DHT22;39574;50.534;8.500;2023-04-24T20:00:29;11.1;99.9
53675;DHT22;39574;50.534;8.500;2023-04-24T20:10:09;10.9;99.9
53675;DHT22;39574;50.534;8.500;2023-04-24T20:15:18;10.7;99.9
53675;DHT22;39574;50.534;8.500;2023-04-24T20:25:06;10.6;99.9
53675;DHT22;39574;50.534;8.500;2023-04-24T20:30:23;10.4;99.9
53675;DHT22;39574;50.534;8.500;2023-04-24T20:40:03;10.4;99.9
53675;DHT22;39574;50.534;8.500;2023-04-24T20:50:10;10.4;99.9
53675;DHT22;39574;50.534;8.500;2023-04-24T20:55:17;10.4;99.9
53675;DHT22;39574;50.534;8.500;2023-04-24T21:04:58;10.3;99.9
53675;DHT22;39574;50.534;8.500;2023-04-24T21:14:58;10.3;99.9
53675;DHT22;39574;50.534;8.500;2023-04-24T21:24:53;10.3;99.9
53675;DHT22;39574;50.534;8.500;2023-04-24T21:35:01;10.2;99.9
53675;DHT22;39574;50.534;8.500;2023-04-24T21:44:49;10.1;99.9
53675;DHT22;39574;50.534;8.500;2023-04-24T21:54:44;9.9;99.9
53675;DHT22;39574;50.534;8.500;2023-04-24T22:05:03;9.8;99.9
53675;DHT22;39574;50.534;8.500;2023-04-24T22:14:43;9.8;99.9
53675;DHT22;39574;50.534;8.500;2023-04-24T22:24:10;9.8;99.9
53675;DHT22;39574;50.534;8.500;2023-04-24T22:29:13;9.8;99.9
53675;DHT22;39574;50.534;8.500;2023-04-24T22:34:48;9.8;99.9
53675;DHT22;39574;50.534;8.500;2023-04-24T22:44:11;9.8;99.9
53675;DHT22;39574;50.534;8.500;2023-04-24T22:49:45;9.8;99.9
53675;DHT22;39574;50.534;8.500;2023-04-24T22:59:33;9.7;99.9
53675;DHT22;39574;50.534;8.500;2023-04-24T23:04:33;9.6;99.9
53675;DHT22;39574;50.534;8.500;2023-04-24T23:14:30;9.6;99.9
53675;DHT22;39574;50.534;8.500;2023-04-24T23:19:47;9.6;99.9
53675;DHT22;39574;50.534;8.500;2023-04-24T23:29:45;9.6;99.9
53675;DHT22;39574;50.534;8.500;2023-04-24T23:39:25;9.5;99.9
53675;DHT22;39574;50.534;8.500;2023-04-24T23:49:21;9.6;99.9
53675;DHT22;39574;50.534;8.500;2023-04-24T23:59:01;9.5;99.9
